createdAt,value
2019-04-21T02:17:14.483Z,15.80
2019-04-21T02:48:43.553Z,11.00
2019-04-21T02:51:17.596Z,10.53
2019-04-21T06:06:13.842Z,10.00
2019-04-21T06:55:43.545Z,6.00
2019-04-21T07:01:39.090Z,5.85
2019-04-21T07:04:11.738Z,5.37
2019-04-21T07:06:45.749Z,5.40
2019-04-21T07:11:36.803Z,3.62
2019-04-21T07:14:30.176Z,4.72
2019-04-21T07:16:44.703Z,5.37
2019-04-21T07:21:45.819Z,3.15
2019-04-21T07:24:21.602Z,3.08
2019-04-21T07:26:51.528Z,3.83
2019-04-21T07:29:21.862Z,2.80
2019-04-21T07:31:54.395Z,3.42
2019-04-21T07:39:16.831Z,3.55
2019-04-21T07:41:49.699Z,3.00
2019-04-21T07:44:16.834Z,2.67
2019-04-21T07:46:48.185Z,2.50
2019-04-21T07:49:46.631Z,2.50
2019-04-21T07:52:26.469Z,2.35
2019-04-21T07:55:05.506Z,3.35
2019-04-21T07:57:23.455Z,2.58
2019-04-21T08:00:06.525Z,14.50
2019-04-21T08:02:30.652Z,4.10
2019-04-21T08:05:10.237Z,3.40
2019-04-21T08:07:41.651Z,3.83
2019-04-21T08:10:00.074Z,2.40
2019-04-21T08:12:30.382Z,2.27
2019-04-21T08:15:09.682Z,2.55
2019-04-21T08:17:37.007Z,3.55
2019-04-21T08:20:09.219Z,3.50
2019-04-21T08:22:41.234Z,3.45
2019-04-21T08:25:10.298Z,3.92
2019-04-21T08:27:51.062Z,3.90
2019-04-21T08:30:14.284Z,3.98
2019-04-21T12:10:05.814Z,2.73
2019-04-21T12:12:37.169Z,2.60
2019-04-21T12:15:11.226Z,2.90
2019-04-21T12:30:57.776Z,3.27
2019-04-21T12:44:00.376Z,2.87
2019-04-21T12:46:31.868Z,3.07
2019-04-21T12:49:02.139Z,3.57
2019-04-21T12:51:33.367Z,3.57
2019-04-21T12:54:03.764Z,4.00
2019-04-21T12:56:33.879Z,3.07
2019-04-21T12:59:03.282Z,3.93
2019-04-21T13:02:03.283Z,6.00
2019-04-21T13:12:31.093Z,3.20
2019-04-21T13:26:58.085Z,2.70
2019-04-21T13:29:32.673Z,3.17
2019-04-21T13:38:40.030Z,3.17
2019-04-21T13:41:29.832Z,2.90
2019-04-21T13:44:11.010Z,3.90
2019-04-21T13:48:50.575Z,5.67
2019-04-21T13:50:02.998Z,4.37
2019-04-21T13:52:33.169Z,3.07
2019-04-21T13:55:05.541Z,5.13
2019-04-21T13:57:36.607Z,5.87
2019-04-21T14:00:08.810Z,4.43
2019-04-21T14:02:40.749Z,3.40
2019-04-21T14:05:12.299Z,3.40
2019-04-21T14:07:42.007Z,2.67
2019-04-21T14:10:12.757Z,2.87
2019-04-21T14:12:44.407Z,3.57
2019-04-21T14:15:14.628Z,3.20
2019-04-21T14:17:44.662Z,2.63
2019-04-21T14:20:15.216Z,3.00
2019-04-21T14:22:44.496Z,6.03
2019-04-21T14:25:15.388Z,2.73
2019-04-21T14:27:48.528Z,3.10
2019-04-21T14:30:16.514Z,3.27
2019-04-21T14:32:47.530Z,2.90
2019-04-21T14:35:17.010Z,2.90
2019-04-21T14:37:46.694Z,2.83
2019-04-21T14:40:22.489Z,2.70
2019-04-21T14:42:49.876Z,3.00
2019-04-21T14:45:30.428Z,3.30
2019-04-21T14:48:19.358Z,2.90
2019-04-21T14:51:09.254Z,2.30
2019-04-21T14:53:51.939Z,2.53
2019-04-21T14:56:21.622Z,2.40
2019-04-21T14:58:55.294Z,2.90
2019-04-21T15:01:23.897Z,2.73
2019-04-21T15:03:53.135Z,3.37
2019-04-21T15:06:23.175Z,3.40
2019-04-21T15:08:53.264Z,4.40
2019-04-21T15:11:24.211Z,3.00
2019-04-21T15:13:54.038Z,2.90
2019-04-21T15:16:23.281Z,2.80
2019-04-21T15:18:54.667Z,3.00
2019-04-21T15:21:25.687Z,3.50
2019-04-21T15:23:56.233Z,2.90
2019-04-21T15:26:26.333Z,4.60
2019-04-21T15:28:57.078Z,4.10
2019-04-21T15:31:30.565Z,2.97
2019-04-21T15:33:57.450Z,3.77
2019-04-21T15:36:27.325Z,3.27
2019-04-21T15:38:58.008Z,3.33
2019-04-21T15:41:27.283Z,3.00
2019-04-21T15:43:59.257Z,3.40
2019-04-21T15:46:29.148Z,3.20
2019-04-21T15:48:59.059Z,3.57
2019-04-21T15:51:31.553Z,3.20
2019-04-21T15:54:02.625Z,3.27
2019-04-21T15:56:56.922Z,3.10
2019-04-21T15:59:34.666Z,3.13
2019-04-21T16:02:24.567Z,3.27
2019-04-21T16:04:54.850Z,4.40
2019-04-21T16:07:24.510Z,3.30
2019-04-21T16:09:54.432Z,3.23
2019-04-21T16:12:23.625Z,3.60
2019-04-21T16:14:52.761Z,3.80
2019-04-21T16:17:23.566Z,6.07
2019-04-21T16:19:54.365Z,5.00
2019-04-21T16:22:24.453Z,3.40
2019-04-21T16:24:54.759Z,3.80
2019-04-21T16:27:25.693Z,3.43
2019-04-21T16:29:55.837Z,3.17
2019-04-21T16:32:26.055Z,3.40
2019-04-21T16:35:01.825Z,3.60
2019-04-21T16:37:27.822Z,4.53
2019-04-21T16:39:57.014Z,4.30
2019-04-21T16:42:26.104Z,3.97
2019-04-21T16:44:56.946Z,4.00
2019-04-21T16:47:27.905Z,4.10
2019-04-21T16:49:58.934Z,4.30
2019-04-21T16:52:40.311Z,4.80
2019-04-21T16:55:18.979Z,4.40
2019-04-21T16:58:00.689Z,4.53
2019-04-21T17:00:35.040Z,4.50
2019-04-21T17:02:58.692Z,4.43
2019-04-21T17:05:30.042Z,5.47
2019-04-21T17:07:59.742Z,4.47
2019-04-21T17:10:28.974Z,4.30
2019-04-21T17:12:58.089Z,4.77
2019-04-21T17:15:42.086Z,4.73
2019-04-21T17:18:13.084Z,4.87
2019-04-21T17:20:39.918Z,4.60
2019-04-21T17:23:01.752Z,4.33
2019-04-21T17:25:32.106Z,4.00
2019-04-21T17:28:01.902Z,5.20
2019-04-21T17:30:32.591Z,4.87
2019-04-21T17:33:03.461Z,7.10
2019-04-21T17:35:33.241Z,4.80
2019-04-21T17:38:03.885Z,4.20
2019-04-21T17:40:33.918Z,4.17
2019-04-21T17:43:07.605Z,4.10
2019-04-21T17:45:35.206Z,4.47
2019-04-21T17:48:09.798Z,4.87
2019-04-21T17:50:49.555Z,4.53
2019-04-21T17:53:30.464Z,4.40
2019-04-21T17:56:20.685Z,5.37
2019-04-21T17:58:43.363Z,5.00
2019-04-21T18:01:39.330Z,5.20
2019-04-21T18:04:01.626Z,4.83
2019-04-21T18:06:20.933Z,5.80
2019-04-21T18:08:53.004Z,5.43
2019-04-21T18:11:18.049Z,7.07
2019-04-21T18:13:39.639Z,5.90
2019-04-21T18:16:20.681Z,6.00
2019-04-21T18:18:41.188Z,8.60
2019-04-21T18:21:22.813Z,6.53
2019-04-21T18:24:06.339Z,6.50
2019-04-21T18:26:39.461Z,6.50
2019-04-21T18:29:01.046Z,6.63
2019-04-21T18:31:35.287Z,6.47
2019-04-21T18:34:25.309Z,6.33
2019-04-21T18:36:58.885Z,6.27
2019-04-21T18:39:49.491Z,6.93
2019-04-21T18:42:31.198Z,6.30
2019-04-21T18:45:34.522Z,12.60
2019-04-21T18:47:54.966Z,6.40
2019-04-21T18:50:45.975Z,6.40
2019-04-21T18:53:36.474Z,7.80
2019-04-21T18:55:59.907Z,9.80
2019-04-21T18:58:24.721Z,8.40
2019-04-21T19:01:03.194Z,7.50
2019-04-21T19:03:35.123Z,6.70
2019-04-21T19:06:06.512Z,6.40
2019-04-21T19:08:46.557Z,6.57
2019-04-21T19:11:19.598Z,6.73
2019-04-21T19:14:32.136Z,7.00
2019-04-21T19:19:34.163Z,8.33
2019-04-21T19:21:40.411Z,7.17
2019-04-21T19:24:27.853Z,6.83
2019-04-21T19:26:52.170Z,7.33
2019-04-21T19:29:26.615Z,7.80
2019-04-21T19:32:08.798Z,8.43
2019-04-21T19:34:14.460Z,10.17
2019-04-21T19:36:41.495Z,9.10
2019-04-21T19:39:16.158Z,8.57
2019-04-21T19:41:56.079Z,8.13
2019-04-21T19:44:34.068Z,9.40
2019-04-21T19:47:03.942Z,10.00
2019-04-21T19:49:41.875Z,9.07
2019-04-21T19:51:56.288Z,9.70
2019-04-21T19:54:29.417Z,9.80
2019-04-21T19:56:55.511Z,10.37
2019-04-21T19:59:34.881Z,9.90
2019-04-21T20:02:02.596Z,9.23
2019-04-21T20:04:42.765Z,12.57
2019-04-21T20:07:23.431Z,12.67
2019-04-21T20:09:57.602Z,10.13
2019-04-21T20:16:08.058Z,11.63
2019-04-21T20:18:26.124Z,17.83
2019-04-21T20:20:50.123Z,11.53
2019-04-21T20:23:27.816Z,25.93
2019-04-21T20:25:55.876Z,35.07
2019-04-21T20:28:55.163Z,20.80
2019-04-21T20:31:47.071Z,16.87
2019-04-21T20:34:33.406Z,13.63
2019-04-21T20:37:21.221Z,12.90
2019-04-21T20:39:47.339Z,12.57
2019-04-21T20:46:45.901Z,11.20
2019-04-21T20:48:45.214Z,11.93
2019-04-21T20:51:28.360Z,12.83
2019-04-21T20:53:53.757Z,13.47
2019-04-21T20:56:26.955Z,13.57
2019-04-21T20:59:07.722Z,13.60
2019-04-21T21:01:39.472Z,14.93
2019-04-21T21:04:12.363Z,14.87
2019-04-21T21:06:47.151Z,15.70
2019-04-21T21:09:22.204Z,15.30
2019-04-21T21:12:09.936Z,14.90
2019-04-21T21:14:28.087Z,16.43
2019-04-21T21:17:02.997Z,16.37
2019-04-21T21:19:34.791Z,17.00
2019-04-21T21:22:06.018Z,16.13
2019-04-21T21:24:47.412Z,15.70
2019-04-21T21:27:15.909Z,15.13
2019-04-21T21:29:50.917Z,14.87
2019-04-21T21:32:44.239Z,24.00
2019-04-21T21:35:02.880Z,32.03
2019-04-21T21:37:54.979Z,32.83
2019-04-21T21:40:27.128Z,24.70
2019-04-21T21:42:44.287Z,17.17
2019-04-21T21:45:22.300Z,16.60
2019-04-21T21:48:11.440Z,14.80
2019-04-21T21:50:38.552Z,14.93
2019-04-21T21:53:10.493Z,14.70
2019-04-21T21:55:46.838Z,14.70
2019-04-21T21:58:25.314Z,15.03
2019-04-21T22:01:06.814Z,15.30
2019-04-21T22:03:46.222Z,14.30
2019-04-21T22:06:17.583Z,14.83
2019-04-21T22:08:46.034Z,14.97
2019-04-21T22:15:41.622Z,16.43
2019-04-21T22:18:43.817Z,14.50
2019-04-21T22:21:15.607Z,15.33
2019-04-21T22:23:43.817Z,15.50
2019-04-21T22:26:11.413Z,15.63
2019-04-21T22:28:41.162Z,14.60
2019-04-21T22:31:14.977Z,14.90
2019-04-21T22:33:48.296Z,15.57
2019-04-21T22:36:26.751Z,15.57
2019-04-21T22:39:04.975Z,15.10
2019-04-21T22:41:28.154Z,15.80
2019-04-21T22:43:51.751Z,16.20
2019-04-21T22:46:20.224Z,15.67
2019-04-21T22:48:53.140Z,16.00
2019-04-21T22:51:30.542Z,16.23
2019-04-21T22:53:57.629Z,29.80
2019-04-21T22:56:30.068Z,26.30
2019-04-21T22:58:57.107Z,25.87
2019-04-21T23:01:33.359Z,21.70
2019-04-21T23:04:02.810Z,17.10
2019-04-21T23:06:33.815Z,23.73
2019-04-21T23:09:01.896Z,17.30
2019-04-21T23:11:37.513Z,15.63
2019-04-21T23:14:07.820Z,15.20
2019-04-21T23:16:38.035Z,14.90
2019-04-21T23:19:24.084Z,14.53
2019-04-21T23:21:58.175Z,15.27
2019-04-21T23:24:38.436Z,14.03
2019-04-21T23:26:58.802Z,14.60
2019-04-21T23:29:43.774Z,13.77
2019-04-21T23:32:00.789Z,15.20
2019-04-21T23:34:23.873Z,14.00
2019-04-21T23:36:58.987Z,13.20
2019-04-21T23:39:23.407Z,14.33
2019-04-21T23:41:53.367Z,14.53
2019-04-21T23:44:23.733Z,13.67
2019-04-21T23:47:01.058Z,12.93
2019-04-21T23:49:35.404Z,14.53
2019-04-21T23:52:02.449Z,14.37
2019-04-21T23:54:27.279Z,13.93
2019-04-21T23:56:57.986Z,13.33
2019-04-21T23:59:32.857Z,12.90
